Data for 10/24/2013

Time Sea-Level Adjusted Pressure Absolute Pressure Temperature Relative Humidity Dew Point   
(mb) (inHg) (mb) (inHg) (C) (F) (%) (C) (F)
00:05 1024 30.24 853 25.19 5 41.1 77 1.4 34.5
00:10 1024 30.24 853 25.19 4.9 40.9 78 1.4 34.5
00:15 1024 30.24 853 25.19 4.9 40.7 79 1.4 34.6
00:20 1024 30.24 853 25.19 4.8 40.6 79 1.5 34.7
00:25 1024 30.24 853 25.19 4.8 40.6 79 1.5 34.6
00:30 1024 30.24 853 25.19 4.7 40.5 80 1.5 34.7
00:35 1024 30.24 853 25.19 4.7 40.4 80 1.5 34.6
00:40 1024 30.24 853 25.19 4.6 40.3 80 1.5 34.6
00:45 1024 30.24 853 25.19 4.6 40.2 80 1.5 34.6
00:50 1024 30.24 853 25.19 4.5 40.1 80 1.4 34.6
00:55 1024 30.24 853 25.19 4.5 40.1 81 1.5 34.7
01:00 1024 30.24 853 25.19 4.5 40.1 81 1.5 34.7
01:05 1024 30.24 853 25.19 4.4 40 81 1.5 34.8
01:10 1024 30.24 853 25.19 4.4 39.9 82 1.5 34.7
01:15 1024 30.24 853 25.19 4.3 39.7 83 1.6 34.9
01:20 1024 30.24 853 25.19 4.2 39.6 83 1.5 34.8
01:25 1024 30.24 853 25.19 4.1 39.3 83 1.5 34.7
01:30 1024 30.24 853 25.19 4 39.1 84 1.5 34.6
01:35 1024 30.24 853 25.19 3.9 39 84 1.4 34.6
01:40 1024 30.24 853 25.19 3.8 38.9 84 1.3 34.4
01:45 1024 30.24 853 25.19 3.7 38.7 84 1.3 34.4
01:50 1024 30.24 853 25.19 3.7 38.7 84 1.3 34.4
01:55 1024 30.24 853 25.19 3.7 38.7 84 1.3 34.4
02:00 1024 30.24 853 25.19 3.7 38.7 84 1.4 34.4
02:05 1024 30.24 853 25.19 3.7 38.6 85 1.3 34.4
02:10 1024 30.24 853 25.19 3.7 38.6 84 1.3 34.3
02:15 1024 30.24 853 25.19 3.6 38.5 84 1.2 34.2
02:20 1024 30.24 853 25.19 3.5 38.4 84 1.1 34
02:25 1024 30.24 853 25.19 3.5 38.3 84 1.1 33.9
02:30 1024 30.24 853 25.19 3.5 38.2 84 1.1 33.9
02:35 1024 30.24 853 25.19 3.4 38.1 84 1 33.7
02:40 1024 30.24 853 25.19 3.3 37.9 85 1 33.7
02:45 1024 30.24 853 25.19 3.3 37.9 85 0.9 33.7
02:50 1024 30.24 853 25.19 3.3 37.9 85 1 33.8
02:55 1024 30.24 853 25.19 3.3 38 86 1.1 34
03:00 1024 30.24 853 25.19 3.4 38.1 86 1.2 34.1
03:05 1024 30.24 853 25.19 3.3 38 85 1 33.9
03:10 1024 30.24 853 25.19 3.3 38 85 1.1 33.9
03:15 1024 30.24 853 25.19 3.3 37.9 85 1 33.8
03:20 1024 30.24 853 25.19 3.2 37.8 85 1 33.7
03:25 1024 30.24 853 25.19 3.2 37.8 85 1 33.8
03:30 1024 30.24 853 25.19 3.2 37.8 85 0.9 33.7
03:35 1024 30.24 853 25.19 3.1 37.6 85 0.8 33.4
03:40 1024 30.24 853 25.19 2.9 37.3 85 0.7 33.2
03:45 1024 30.24 853 25.19 2.9 37.2 85 0.6 33
03:50 1024 30.24 853 25.19 2.9 37.1 84 0.5 32.9
03:55 1024 30.24 853 25.19 2.9 37.2 84 0.5 32.8
04:00 1024 30.24 853 25.19 2.9 37.2 84 0.5 32.8
04:05 1024 30.24 853 25.19 2.9 37.1 84 0.4 32.6
04:10 1024 30.24 853 25.19 2.8 37.1 83 0.3 32.5
04:15 1024 30.24 853 25.19 2.9 37.2 83 0.2 32.4
04:20 1024 30.24 853 25.19 2.8 37 84 0.3 32.6
04:25 1024 30.24 853 25.19 2.7 36.9 84 0.3 32.5
04:30 1024 30.24 853 25.19 2.6 36.7 85 0.3 32.5
04:35 1024 30.24 853 25.19 2.5 36.5 86 0.3 32.6
04:40 1024 30.24 853 25.19 2.5 36.5 85 0.3 32.5
04:45 1024 30.24 853 25.19 2.5 36.5 85 0.2 32.4
04:50 1024 30.24 853 25.19 2.4 36.4 85 0.1 32.1
04:55 1024 30.24 853 25.19 2.5 36.4 83 -0.1 31.8
05:00 1024 30.24 853 25.19 2.5 36.5 83 -0.1 31.8
05:05 1024 30.24 853 25.19 2.4 36.3 83 -0.1 31.8
05:10 1024 30.24 853 25.19 2.4 36.3 83 -0.2 31.6
05:15 1024 30.24 853 25.19 2.5 36.5 82 -0.2 31.6
05:20 1024 30.24 853 25.19 2.6 36.6 82 -0.2 31.6
05:25 1024 30.24 853 25.19 2.5 36.5 82 -0.2 31.7
05:30 1024 30.24 853 25.19 2.4 36.4 83 -0.1 31.8
05:35 1024 30.24 853 25.19 2.5 36.4 84 -0 31.9
05:40 1024 30.24 853 25.19 2.3 36.2 84 -0.1 31.8
05:45 1024 30.24 853 25.19 2.2 35.9 84 -0.2 31.6
05:50 1024 30.24 853 25.19 2.1 35.7 85 -0.2 31.6
05:55 1024 30.24 853 25.19 2 35.5 86 -0.2 31.7
06:00 1024 30.24 853 25.19 1.9 35.4 86 -0.2 31.6
06:05 1024 30.24 853 25.19 1.8 35.3 86 -0.2 31.6
06:10 1024 30.24 853 25.19 2 35.6 86 -0.1 31.8
06:15 1024 30.24 853 25.19 2.1 35.7 85 -0.2 31.6
06:20 1024 30.24 853 25.19 2 35.6 85 -0.3 31.5
06:25 1024 30.24 853 25.19 1.9 35.5 85 -0.3 31.5
06:30 1024 30.24 853 25.19 2 35.7 84 -0.4 31.3
06:35 1024 30.24 853 25.19 2.1 35.8 84 -0.4 31.3
06:40 1024 30.24 853 25.19 2.1 35.8 83 -0.4 31.3
06:45 1024 30.24 853 25.19 2.1 35.7 84 -0.4 31.2
06:50 1024 30.24 853 25.19 1.9 35.5 84 -0.5 31
06:55 1024 30.24 853 25.19 1.9 35.5 83 -0.7 30.7
07:00 1024 30.24 853 25.19 1.9 35.4 83 -0.8 30.6
07:05 1024 30.24 854 25.22 1.9 35.3 83 -0.7 30.7
07:10 1024 30.24 854 25.22 1.9 35.4 83 -0.7 30.7
07:15 1024 30.24 854 25.22 1.9 35.4 82 -0.9 30.3
07:20 1024 30.24 854 25.22 1.9 35.4 81 -1 30.2
07:25 1024 30.24 854 25.22 2.1 35.7 81 -0.8 30.6
07:30 1024 30.24 854 25.22 2.3 36.1 81 -0.7 30.7
07:35 1024 30.24 854 25.22 2.4 36.3 80 -0.7 30.8
07:40 1024 30.24 854 25.22 2.6 36.7 79 -0.7 30.7
07:45 1024 30.24 854 25.22 2.8 37.1 78 -0.6 30.8
07:50 1025 30.27 854 25.22 3.1 37.6 77 -0.5 31.1
07:55 1025 30.27 854 25.22 3.2 37.7 77 -0.5 31.2
08:00 1025 30.27 854 25.22 3.2 37.8 77 -0.4 31.2
08:05 1025 30.27 854 25.22 3.4 38.2 76 -0.4 31.3
08:10 1025 30.27 854 25.22 3.4 38.1 76 -0.5 31
08:15 1025 30.27 854 25.22 3.9 38.9 73 -0.5 31.1
08:20 1025 30.27 854 25.22 4 39.3 72 -0.5 31
08:25 1025 30.27 854 25.22 4.3 39.8 71 -0.5 31.1
08:30 1025 30.27 854 25.22 4.3 39.7 70 -0.7 30.8
08:35 1025 30.27 854 25.22 4.8 40.6 68 -0.6 30.9
08:40 1025 30.27 854 25.22 5 41.1 67 -0.5 31
08:45 1025 30.27 854 25.22 5.4 41.7 65 -0.7 30.7
08:50 1025 30.27 854 25.22 5.6 42.1 62 -1 30.1
08:55 1025 30.27 854 25.22 5.7 42.2 62 -1 30.2
09:00 1025 30.27 854 25.22 6 42.8 60 -1.3 29.7
09:05 1025 30.27 854 25.22 6.4 43.5 58 -1.2 29.9
09:10 1025 30.27 854 25.22 6.6 43.9 59 -0.8 30.5
09:15 1025 30.27 854 25.22 7.4 45.2 54 -1.4 29.5
09:20 1025 30.27 854 25.22 7.8 46.1 47 -2.7 27.1
09:25 1025 30.27 854 25.22 8 46.4 46 -2.8 26.9
09:30 1025 30.27 854 25.22 8.3 47 51 -1.2 29.8
09:35 1025 30.27 854 25.22 8.5 47.3 48 -1.8 28.8
09:40 1025 30.27 854 25.22 8.6 47.5 48 -1.6 29.1
09:45 1025 30.27 854 25.22 8.4 47.1 48 -2.1 28.3
09:50 1025 30.27 854 25.22 8.7 47.7 43 -3 26.6
09:55 1025 30.27 854 25.22 9.2 48.6 40 -3.6 25.5
10:00 1024 30.24 854 25.22 9.7 49.5 40 -3.2 26.2
10:05 1024 30.24 854 25.22 10 50.1 38 -3.6 25.5
10:10 1024 30.24 854 25.22 10.4 50.7 39 -3 26.6
10:15 1025 30.27 854 25.22 10.4 50.8 41 -2.1 28.2
10:20 1024 30.24 854 25.22 10.2 50.3 41 -2.3 27.8
10:25 1024 30.24 854 25.22 10.4 50.8 39 -2.8 26.9
10:30 1024 30.24 854 25.22 10.9 51.5 39 -2.4 27.8
10:35 1024 30.24 854 25.22 10.4 50.7 43 -1.7 28.9
10:40 1024 30.24 854 25.22 11 51.8 42 -1.3 29.7
10:45 1024 30.24 853 25.19 11.3 52.4 42 -1 30.2
10:50 1024 30.24 853 25.19 11.5 52.7 42 -0.8 30.5
10:55 1024 30.24 853 25.19 11.3 52.3 44 -0.5 31.1
11:00 1024 30.24 853 25.19 11.3 52.4 47 0.5 32.9
11:05 1024 30.24 853 25.19 10.8 51.4 45 -0.5 31.2
11:10 1024 30.24 853 25.19 11.2 52.2 43 -0.9 30.3
11:15 1024 30.24 853 25.19 11.9 53.4 40 -1 30.1
11:20 1024 30.24 853 25.19 11.8 53.2 43 -0.4 31.3
11:25 1024 30.24 853 25.19 11.4 52.6 44 -0.5 31.2
11:30 1024 30.24 853 25.19 11.6 52.8 43 -0.6 31
11:35 1024 30.24 853 25.19 12 53.5 42 -0.6 30.9
11:40 1024 30.24 853 25.19 11.9 53.5 44 -0 31.9
11:45 1024 30.24 853 25.19 12.1 53.9 42 -0.2 31.6
11:50 1024 30.24 853 25.19 12.1 53.8 41 -0.6 31
11:55 1024 30.24 853 25.19 12.8 55.1 39 -0.7 30.7
12:00 1024 30.24 853 25.19 13 55.4 39 -0.6 30.9
12:05 1024 30.24 853 25.19 13.2 55.8 37 -1 30.2
12:10 1024 30.24 853 25.19 12.8 55 39 -0.7 30.8
12:15 1024 30.24 853 25.19 13.3 55.9 37 -1.2 29.8
12:20 1024 30.24 853 25.19 13.3 55.9 37 -1.1 30
12:25 1023 30.21 853 25.19 13.2 55.8 37 -0.9 30.4
12:30 1023 30.21 853 25.19 12.9 55.2 40 -0.2 31.7
12:35 1023 30.21 853 25.19 12.5 54.5 38 -1.3 29.7
12:40 1023 30.21 852 25.16 13.4 56 36 -1.2 29.8
12:45 1023 30.21 852 25.16 13.3 56 36 -1.3 29.7
12:50 1023 30.21 852 25.16 13.3 56 37 -1.1 30
12:55 1023 30.21 852 25.16 13.2 55.8 37 -1.2 29.8
13:00 1023 30.21 852 25.16 13.4 56.1 37 -1 30.1
13:05 1023 30.21 852 25.16 13.6 56.5 35 -1.3 29.6
13:10 1023 30.21 852 25.16 14.1 57.4 34 -1.4 29.5
13:15 1023 30.21 852 25.16 14.3 57.8 33 -1.7 29
13:20 1023 30.21 852 25.16 14.2 57.5 34 -1.5 29.3
13:25 1023 30.21 852 25.16 14.4 58 32 -1.9 28.7
13:30 1023 30.21 852 25.16 14.6 58.3 33 -1.5 29.2
13:35 1023 30.21 852 25.16 14.4 57.8 33 -1.5 29.3
13:40 1023 30.21 852 25.16 14.5 58 32 -2 28.4
13:45 1022 30.18 852 25.16 15 59 31 -1.8 28.8
13:50 1022 30.18 852 25.16 15.5 59.8 30 -1.8 28.8
13:55 1022 30.18 852 25.16 15.6 60 30 -2 28.4
14:00 1022 30.18 852 25.16 15.3 59.5 30 -2.1 28.2
14:05 1022 30.18 852 25.16 15 59.1 32 -1.6 29.2
14:10 1022 30.18 852 25.16 14.4 57.9 32 -1.8 28.7
14:15 1022 30.18 851 25.13 14.8 58.7 31 -2.1 28.2
14:20 1022 30.18 851 25.13 15.2 59.4 31 -1.6 29.2
14:25 1022 30.18 851 25.13 15.5 60 30 -1.8 28.8
14:30 1022 30.18 851 25.13 15.4 59.6 31 -1.4 29.5
14:35 1022 30.18 851 25.13 15.7 60.2 30 -1.6 29.2
14:40 1022 30.18 851 25.13 15.6 60.1 30 -1.7 28.9
14:45 1022 30.18 851 25.13 15.5 60 30 -1.7 29
14:50 1022 30.18 851 25.13 15.4 59.8 31 -1.4 29.5
14:55 1022 30.18 851 25.13 15.5 59.8 31 -1.5 29.3
15:00 1022 30.18 851 25.13 15.6 60.1 31 -1.5 29.3
15:05 1022 30.18 851 25.13 15.6 60.2 31 -1.5 29.3
15:10 1022 30.18 851 25.13 15.8 60.4 31 -1.4 29.5
15:15 1022 30.18 851 25.13 15.4 59.7 31 -1.4 29.5
15:20 1022 30.18 851 25.13 15.4 59.6 31 -1.5 29.3
15:25 1022 30.18 851 25.13 15.5 60 31 -1.5 29.3
15:30 1022 30.18 851 25.13 15.5 59.9 30 -1.9 28.6
15:35 1022 30.18 851 25.13 15.7 60.2 30 -1.7 29
15:40 1022 30.18 851 25.13 15.8 60.4 30 -1.7 28.9
15:45 1022 30.18 851 25.13 15.6 60.1 30 -1.8 28.7
15:50 1022 30.18 851 25.13 15.7 60.3 30 -1.8 28.7
15:55 1022 30.18 851 25.13 15.9 60.7 29 -1.8 28.8
16:00 1022 30.18 851 25.13 16.1 60.9 30 -1.4 29.5
16:05 1022 30.18 851 25.13 15.6 60.1 31 -1.5 29.2
16:10 1022 30.18 851 25.13 15.5 59.8 31 -1.4 29.4
16:15 1022 30.18 851 25.13 15.3 59.6 31 -1.8 28.8
16:20 1022 30.18 851 25.13 15.5 59.9 31 -1.6 29
16:25 1022 30.18 851 25.13 15.7 60.2 31 -1.4 29.4
16:30 1022 30.18 851 25.13 15.5 59.8 32 -1.3 29.7
16:35 1022 30.18 851 25.13 15.3 59.5 31 -1.7 29
16:40 1022 30.18 851 25.13 14.8 58.6 32 -1.8 28.7
16:45 1022 30.18 851 25.13 14.7 58.5 32 -1.5 29.3
16:50 1022 30.18 851 25.13 14.5 58.1 33 -1.5 29.3
16:55 1022 30.18 851 25.13 14.1 57.4 35 -1.3 29.7
17:00 1022 30.18 851 25.13 13.6 56.5 38 -0.4 31.2
17:05 1022 30.18 851 25.13 13.3 55.9 36 -1.3 29.7
17:10 1022 30.18 851 25.13 13.1 55.6 37 -1.1 30
17:15 1022 30.18 851 25.13 12.9 55.2 37 -1.2 29.8
17:20 1022 30.18 851 25.13 12.5 54.6 38 -1.2 29.8
17:25 1022 30.18 851 25.13 12.4 54.2 38 -1.3 29.6
17:30 1022 30.18 851 25.13 12.2 53.9 39 -1.2 29.9
17:35 1022 30.18 851 25.13 11.8 53.2 44 -0 31.9
17:40 1022 30.18 851 25.13 11 51.7 47 0.2 32.4
17:45 1022 30.18 851 25.13 10.2 50.4 48 -0.1 31.8
17:50 1022 30.18 851 25.13 9.9 49.7 48 -0.6 31
17:55 1022 30.18 851 25.13 9.5 49 49 -0.6 31
18:00 1022 30.18 851 25.13 9.4 48.9 49 -0.7 30.8
18:05 1022 30.18 851 25.13 9.3 48.8 50 -0.6 30.9
18:10 1022 30.18 851 25.13 9.1 48.4 52 -0.3 31.5
18:15 1022 30.18 851 25.13 8.5 47.3 54 -0.2 31.7
18:20 1022 30.18 851 25.13 8 46.5 55 -0.3 31.4
18:25 1022 30.18 851 25.13 7.5 45.6 56 -0.6 30.9
18:30 1022 30.18 851 25.13 7.5 45.5 54 -1.1 30
18:35 1022 30.18 851 25.13 8.4 47.1 52 -0.9 30.4
18:40 1022 30.18 851 25.13 8.4 47.1 49 -1.7 28.9
18:45 1022 30.18 851 25.13 9 48.2 43 -2.8 27
18:50 1022 30.18 851 25.13 9.2 48.6 43 -2.7 27.1
18:55 1022 30.18 851 25.13 8.9 48.1 45 -2.5 27.6
19:00 1022 30.18 851 25.13 8.4 47.1 46 -2.4 27.6
19:05 1022 30.18 851 25.13 8.1 46.5 48 -2.3 27.9
19:10 1022 30.18 851 25.13 7.8 46 47 -2.7 27.2
19:15 1022 30.18 851 25.13 7.6 45.7 46 -3.1 26.3
19:20 1022 30.18 851 25.13 7.5 45.4 47 -3.1 26.3
19:25 1022 30.18 851 25.13 7.6 45.6 45 -3.6 25.5
19:30 1022 30.18 851 25.13 7.9 46.2 43 -4 24.9
19:35 1022 30.18 851 25.13 8.1 46.5 42 -3.9 24.9
19:40 1022 30.18 851 25.13 8 46.5 41 -4.3 24.2
19:45 1022 30.18 851 25.13 8 46.4 41 -4.3 24.3
19:50 1022 30.18 851 25.13 8 46.4 42 -4.1 24.6
19:55 1022 30.18 851 25.13 7.7 45.8 44 -3.8 25.1
20:00 1022 30.18 851 25.13 7.4 45.4 43 -4.2 24.5
20:05 1022 30.18 851 25.13 7.4 45.3 43 -4.3 24.3
20:10 1022 30.18 851 25.13 7.5 45.6 43 -4.3 24.3
20:15 1022 30.18 851 25.13 7.7 45.9 43 -4.2 24.5
20:20 1022 30.18 851 25.13 7.7 45.9 42 -4.3 24.3
20:25 1022 30.18 851 25.13 7.8 46.1 43 -4.1 24.6
20:30 1022 30.18 851 25.13 7.8 46.1 42 -4.1 24.5
20:35 1022 30.18 851 25.13 7.9 46.2 43 -4 24.8
20:40 1022 30.18 851 25.13 7.8 46.1 43 -3.9 24.9
20:45 1022 30.18 851 25.13 7.5 45.6 44 -3.9 25
20:50 1022 30.18 851 25.13 8 46.3 43 -3.9 25.1
20:55 1022 30.18 851 25.13 8.4 47.2 43 -3.5 25.6
21:00 1022 30.18 851 25.13 8.4 47.1 41 -4.2 24.5
21:05 1022 30.18 851 25.13 7.7 45.9 43 -4 24.9
21:10 1022 30.18 851 25.13 7.3 45.1 42 -4.8 23.4
21:15 1022 30.18 851 25.13 7.2 45 43 -4.6 23.7
21:20 1022 30.18 851 25.13 7.2 44.9 42 -4.7 23.5
21:25 1022 30.18 851 25.13 7 44.6 43 -4.6 23.7
21:30 1022 30.18 851 25.13 6.8 44.2 44 -4.7 23.5
21:35 1022 30.18 851 25.13 6.7 44.1 44 -4.7 23.5
21:40 1022 30.18 851 25.13 6.8 44.2 43 -4.9 23.2
21:45 1022 30.18 851 25.13 7 44.5 42 -5.2 22.7
21:50 1022 30.18 851 25.13 7.3 45.2 41 -5.1 22.7
21:55 1022 30.18 851 25.13 7.3 45.1 41 -5 23
22:00 1022 30.18 851 25.13 7.3 45.1 41 -5.1 22.9
22:05 1022 30.18 851 25.13 7 44.6 43 -4.6 23.7
22:10 1022 30.18 851 25.13 6.5 43.7 44 -4.8 23.4
22:15 1022 30.18 851 25.13 6.4 43.5 44 -4.9 23.2
22:20 1022 30.18 851 25.13 6.4 43.5 44 -5.1 22.8
22:25 1022 30.18 851 25.13 6.5 43.8 43 -5.3 22.5
22:30 1022 30.18 851 25.13 6.9 44.3 44 -4.6 23.7
22:35 1022 30.18 851 25.13 6.8 44.2 46 -4.1 24.7
22:40 1022 30.18 851 25.13 6.3 43.4 46 -4.4 24.1
22:45 1022 30.18 851 25.13 6.4 43.6 46 -4.4 24.1
22:50 1022 30.18 851 25.13 6.3 43.4 47 -4.1 24.6
22:55 1022 30.18 851 25.13 6.1 42.9 47 -4.4 24.2
23:00 1022 30.18 851 25.13 6 42.8 47 -4.4 24.1
23:05 1022 30.18 851 25.13 5.9 42.5 47 -4.5 23.9
23:10 1022 30.18 851 25.13 5.7 42.3 47 -4.7 23.6
23:15 1022 30.18 851 25.13 5.9 42.7 45 -5.1 22.8
23:20 1022 30.18 851 25.13 6.5 43.7 43 -5.3 22.5
23:25 1022 30.18 851 25.13 6.9 44.4 44 -4.4 24
23:30 1022 30.18 851 25.13 6.8 44.2 43 -4.9 23.2
23:35 1022 30.18 851 25.13 6.7 44.1 44 -4.7 23.5
23:40 1022 30.18 851 25.13 6.1 43 47 -4.3 24.2
23:45 1022 30.18 851 25.13 5.5 41.9 48 -4.8 23.4
23:50 1022 30.18 851 25.13 5.8 42.5 46 -4.8 23.3
23:55 1022 30.18 851 25.13 5.7 42.3 46 -4.9 23.2
24:00 1022 30.18 851 25.13 6 42.9 44 -5.2 22.7